Time;durP1;ratioP1;P1;durP2;ratioP2;P2;SDS_P1;SDS_P2;PMS_P1;PMS_P2;Temp;Humidity;BMP_temperature;BMP_pressure;BME280_temperature;BME280_humidity;BME280_pressure;Samples;Min_cycle;Max_cycle;Signal;HPM_P1;HPM_P2
2022/12/25 00:00:50;;;;;;;2.00;1.20;;;;;;;1.97;100.00;99487.41;5098623;28;20096;-51
2022/12/25 00:03:16;;;;;;;4.55;1.20;;;;;;;2.04;100.00;99498.50;5101537;28;20111;-54
2022/12/25 00:05:42;;;;;;;4.53;1.35;;;;;;;1.97;100.00;99492.53;5099949;28;20051;-55
2022/12/25 00:08:08;;;;;;;1.85;1.00;;;;;;;1.99;100.00;99515.59;5098711;28;20457;-57
2022/12/25 00:11:12;;;;;;;2.30;1.20;;;;;;;1.97;100.00;99513.03;5100967;28;20032;-51
2022/12/25 00:13:38;;;;;;;3.85;1.13;;;;;;;1.75;100.00;99487.44;5098392;28;20096;-55
2022/12/25 00:16:24;;;;;;;2.45;0.90;;;;;;;1.78;100.00;99505.41;5098388;28;20035;-56
2022/12/25 00:19:10;;;;;;;1.48;1.00;;;;;;;1.72;100.00;99502.84;5080134;28;20091;-51
2022/12/25 00:21:55;;;;;;;1.38;0.90;;;;;;;1.57;100.00;99502.00;5093180;28;20043;-54
2022/12/25 00:24:23;;;;;;;3.00;0.80;;;;;;;1.65;100.00;99532.75;5093022;28;20040;-52
2022/12/25 00:26:49;;;;;;;1.10;0.80;;;;;;;1.62;100.00;99541.25;5101983;28;20035;-50
2022/12/25 00:29:15;;;;;;;1.75;1.00;;;;;;;1.44;100.00;99510.56;5098326;28;20040;-53
2022/12/25 00:31:41;;;;;;;1.50;1.02;;;;;;;1.59;100.00;99545.53;5112088;27;20047;-52
2022/12/25 00:34:07;;;;;;;2.10;1.00;;;;;;;1.62;100.00;99556.63;5107018;28;20047;-54
2022/12/25 00:36:33;;;;;;;2.15;1.10;;;;;;;1.64;100.00;99554.94;5087403;28;20040;-56
2022/12/25 00:38:59;;;;;;;1.70;1.08;;;;;;;1.66;100.00;99548.13;5096612;28;20092;-56
2022/12/25 00:44:28;;;;;;;2.78;1.20;;;;;;;1.64;100.00;99556.66;5096137;28;20114;-52
2022/12/25 00:46:54;;;;;;;2.25;1.30;;;;;;;1.62;100.00;99558.38;5112696;27;20057;-56
2022/12/25 00:49:22;;;;;;;2.08;1.17;;;;;;;1.64;100.00;99566.91;5106259;28;20044;-52
2022/12/25 00:52:07;;;;;;;2.67;1.20;;;;;;;1.50;100.00;99540.44;5109220;28;20506;-51
2022/12/25 00:54:33;;;;;;;1.25;1.02;;;;;;;1.68;100.00;99574.56;5099221;28;20032;-53
2022/12/25 00:56:59;;;;;;;1.60;1.13;;;;;;;1.71;100.00;99573.72;5099285;28;20508;-53
2022/12/25 00:59:31;;;;;;;1.50;1.00;;;;;;;1.69;100.00;99585.69;5091337;28;20094;-55
2022/12/25 01:02:21;;;;;;;1.80;1.00;;;;;;;1.34;100.00;99537.03;5090745;28;20044;-51
2022/12/25 01:05:01;;;;;;;1.42;0.98;;;;;;;1.50;100.00;99576.31;5084706;28;20035;-55
2022/12/25 01:07:27;;;;;;;1.58;1.20;;;;;;;1.51;100.00;99590.81;5111455;28;20562;-57
2022/12/25 01:10:21;;;;;;;3.00;1.20;;;;;;;1.48;100.00;99595.94;5107274;28;20058;-53
2022/12/25 01:12:48;;;;;;;1.20;1.00;;;;;;;1.52;100.00;99598.47;5124187;27;20134;-54
2022/12/25 01:15:14;;;;;;;1.63;1.10;;;;;;;1.36;100.00;99568.59;5105786;28;20452;-56
2022/12/25 01:17:41;;;;;;;1.33;0.90;;;;;;;1.53;100.00;99604.47;5110441;28;20172;-52
2022/12/25 01:20:08;;;;;;;1.85;1.00;;;;;;;1.48;100.00;99604.47;5093219;28;20032;-50
2022/12/25 01:22:52;;;;;;;2.83;1.38;;;;;;;1.43;100.00;99606.16;5110475;28;20669;-54
2022/12/25 01:25:57;;;;;;;1.45;1.10;;;;;;;1.45;100.00;99609.59;5092948;28;20036;-53
2022/12/25 01:28:41;;;;;;;2.95;1.40;;;;;;;1.38;100.00;99604.47;5090595;28;20043;-54
2022/12/25 01:31:27;;;;;;;2.63;1.52;;;;;;;1.37;100.00;99608.72;5072906;28;20534;-53
2022/12/25 01:33:53;;;;;;;2.10;1.30;;;;;;;1.38;100.00;99620.69;5105703;28;20511;-54
2022/12/25 01:36:23;;;;;;;2.05;1.23;;;;;;;1.33;100.00;99622.38;5106486;28;20047;-54
2022/12/25 01:39:08;;;;;;;2.40;1.27;;;;;;;1.34;100.00;99625.81;5106684;28;20121;-53
2022/12/25 01:42:14;;;;;;;1.95;1.40;;;;;;;1.38;100.00;99627.50;5103480;28;20127;-53
2022/12/25 01:44:47;;;;;;;2.97;1.58;;;;;;;1.37;100.00;99633.47;5100882;28;20665;-57
2022/12/25 01:47:14;;;;;;;2.05;1.45;;;;;;;1.35;100.00;99637.75;5105129;28;20042;-56
2022/12/25 01:49:41;;;;;;;6.60;1.80;;;;;;;1.16;100.00;99606.97;5094544;28;20531;-54
2022/12/25 01:52:13;;;;;;;3.08;1.70;;;;;;;1.34;100.00;99630.91;5070391;28;20036;-54
2022/12/25 01:54:50;;;;;;;4.43;1.50;;;;;;;1.33;100.00;99635.19;5095527;28;20137;-56
2022/12/25 01:57:36;;;;;;;3.60;1.50;;;;;;;1.30;100.00;99642.03;5099873;28;20093;-53
2022/12/25 02:00:05;;;;;;;4.00;1.70;;;;;;;1.12;100.00;99623.19;5080398;28;20424;-52
2022/12/25 02:02:51;;;;;;;4.22;1.80;;;;;;;1.28;100.00;99653.09;5104847;28;20122;-55
2022/12/25 02:05:35;;;;;;;4.50;1.90;;;;;;;1.27;100.00;99656.50;5084358;28;20032;-53
2022/12/25 02:08:12;;;;;;;5.95;1.88;;;;;;;1.10;100.00;99621.50;5091385;28;20175;-51
2022/12/25 02:10:38;;;;;;;3.30;1.65;;;;;;;1.26;100.00;99666.75;5079435;28;20126;-53
2022/12/25 02:13:41;;;;;;;3.05;1.90;;;;;;;1.25;100.00;99668.47;5098770;28;20040;-53
2022/12/25 02:16:12;;;;;;;4.50;2.10;;;;;;;1.25;100.00;99668.47;5082785;28;20038;-54
2022/12/25 02:18:46;;;;;;;5.35;1.83;;;;;;;1.08;100.00;99636.84;5096528;28;20461;-52
2022/12/25 02:21:27;;;;;;;2.97;1.65;;;;;;;1.30;100.00;99670.19;5107339;28;20119;-53
2022/12/25 02:24:12;;;;;;;3.70;1.92;;;;;;;1.21;100.00;99676.97;5097247;28;20054;-52
2022/12/25 02:27:05;;;;;;;1.88;1.52;;;;;;;1.21;100.00;99676.13;5096386;28;20063;-51
2022/12/25 02:29:47;;;;;;;2.58;1.70;;;;;;;1.16;100.00;99688.91;5091350;28;20067;-50
2022/12/25 02:32:26;;;;;;;2.15;1.50;;;;;;;0.96;100.00;99659.84;5103346;28;20154;-51
2022/12/25 02:35:13;;;;;;;5.32;1.80;;;;;;;1.14;100.00;99690.63;5080034;28;20083;-52
2022/12/25 02:38:10;;;;;;;2.80;1.42;;;;;;;1.05;100.00;99689.72;5101367;28;20046;-53
2022/12/25 02:40:50;;;;;;;2.10;1.52;;;;;;;0.94;100.00;99686.28;5085330;28;20050;-55
2022/12/25 03:07:11;;;;;;;3.15;2.17;;;;;;;0.77;100.00;99729.69;5066759;28;20054;-52
2022/12/25 03:12:36;;;;;;;2.90;1.70;;;;;;;0.58;100.00;99695.47;5071221;28;20427;-53
2022/12/25 03:17:49;;;;;;;3.13;1.98;;;;;;;0.52;100.00;99698.00;5087925;28;20292;-54
2022/12/25 03:32:33;;;;;;;3.40;1.98;;;;;;;0.67;100.00;99730.50;5108363;28;20043;-55
2022/12/25 03:35:22;;;;;;;3.70;1.63;;;;;;;0.76;100.00;99745.88;5095918;28;20074;-56
2022/12/25 04:37:33;;;;;;;6.60;3.08;;;;;;;0.43;100.00;99829.22;5109174;28;20043;-54
2022/12/25 04:40:18;;;;;;;6.05;2.80;;;;;;;0.42;100.00;99830.06;5106711;28;20127;-55
2022/12/25 04:43:03;;;;;;;5.40;2.58;;;;;;;0.40;100.00;99834.31;5102683;28;20037;-56
2022/12/25 04:45:28;;;;;;;4.95;2.72;;;;;;;0.41;100.00;99835.19;5089111;28;20038;-53
2022/12/25 04:48:32;;;;;;;3.63;2.50;;;;;;;0.42;100.00;99837.72;5079829;28;20039;-54
2022/12/25 04:51:15;;;;;;;5.80;2.60;;;;;;;0.44;100.00;99837.75;5102090;27;20094;-57
2022/12/25 04:54:02;;;;;;;3.83;2.50;;;;;;;0.42;100.00;99830.06;5091594;28;20112;-54
2022/12/25 04:56:46;;;;;;;3.83;2.45;;;;;;;0.47;100.00;99836.94;5091970;28;20102;-56
2022/12/25 04:59:31;;;;;;;4.38;2.28;;;;;;;0.47;100.00;99847.16;5104016;28;20036;-55
2022/12/25 05:02:15;;;;;;;5.55;2.67;;;;;;;0.25;100.00;99823.94;5071391;28;20040;-53
2022/12/25 05:04:59;;;;;;;4.03;2.67;;;;;;;0.43;100.00;99851.38;5071018;28;20101;-52
2022/12/25 05:07:25;;;;;;;3.50;2.13;;;;;;;0.42;100.00;99855.63;5090639;28;20136;-55
2022/12/25 05:10:09;;;;;;;4.35;2.40;;;;;;;0.42;100.00;99865.00;5091142;28;20127;-55
2022/12/25 05:12:54;;;;;;;6.97;2.78;;;;;;;0.45;100.00;99862.47;5091105;28;20067;-55
2022/12/25 05:15:19;;;;;;;6.07;2.28;;;;;;;0.48;100.00;99880.41;5097082;28;20572;-53
2022/12/25 05:17:57;;;;;;;3.53;2.13;;;;;;;0.50;100.00;99876.16;5092278;28;20178;-56
2022/12/25 05:20:41;;;;;;;2.55;2.13;;;;;;;0.51;100.00;99884.69;5118998;27;20036;-54
2022/12/25 05:23:10;;;;;;;3.53;2.80;;;;;;;0.50;100.00;99885.53;5089958;28;20040;-53
2022/12/25 05:25:40;;;;;;;3.93;2.50;;;;;;;0.42;99.77;99893.97;5094376;28;20036;-51
2022/12/25 05:28:24;;;;;;;4.38;2.30;;;;;;;0.40;99.19;99903.34;5103411;28;20293;-54
2022/12/25 05:30:50;;;;;;;3.47;2.10;;;;;;;0.09;98.15;99867.25;5097832;27;20068;-54
2022/12/25 05:33:16;;;;;;;2.97;1.90;;;;;;;0.14;98.20;99886.03;5099542;28;20819;-53
2022/12/25 05:35:42;;;;;;;3.83;1.60;;;;;;;0.27;97.76;99914.28;5078103;28;20078;-56
2022/12/25 05:38:26;;;;;;;3.50;1.33;;;;;;;0.10;97.74;99904.75;5096208;28;20054;-53
2022/12/25 05:40:52;;;;;;;2.42;1.20;;;;;;;0.00;97.73;99889.28;5091564;28;20507;-53
2022/12/25 05:43:18;;;;;;;1.73;1.20;;;;;;;0.16;97.29;99923.53;5089304;28;20048;-51
2022/12/25 05:45:44;;;;;;;3.35;1.42;;;;;;;0.18;97.49;99921.88;5092917;28;20043;-51
2022/12/25 05:48:29;;;;;;;3.75;1.70;;;;;;;0.20;97.43;99932.97;5071148;28;20046;-52
2022/12/25 05:51:13;;;;;;;2.20;1.30;;;;;;;0.10;97.27;99913.28;5090654;28;20040;-48
2022/12/25 05:53:40;;;;;;;3.63;1.80;;;;;;;0.17;97.32;99940.59;5088110;28;20044;-53
2022/12/25 05:56:25;;;;;;;4.45;1.88;;;;;;;0.17;96.97;99947.41;5089093;28;20044;-49
2022/12/25 05:59:10;;;;;;;3.55;1.73;;;;;;;0.13;97.27;99943.97;5107125;28;20043;-52
2022/12/25 06:01:36;;;;;;;4.55;1.60;;;;;;;0.10;97.09;99948.19;5087438;28;20074;-52
2022/12/25 06:04:02;;;;;;;2.35;1.67;;;;;;;0.07;97.13;99950.69;5089699;28;20040;-51
2022/12/25 06:06:46;;;;;;;4.03;1.60;;;;;;;0.02;97.10;99945.53;5089146;28;20044;-56
2022/12/25 06:09:31;;;;;;;2.13;1.50;;;;;;;0.06;96.93;99948.97;5096840;28;20043;-48
2022/12/25 06:11:57;;;;;;;3.10;1.60;;;;;;;0.06;96.71;99957.50;5106327;28;20503;-55
2022/12/25 06:14:23;;;;;;;2.33;1.58;;;;;;;0.03;96.84;99959.19;5106923;28;20575;-52
2022/12/25 06:16:51;;;;;;;5.10;1.90;;;;;;;-0.20;96.38;99936.75;5090018;28;20032;-54
2022/12/25 06:19:18;;;;;;;4.93;1.40;;;;;;;-0.04;96.40;99978.69;5087235;28;20048;-53
2022/12/25 06:22:07;;;;;;;3.60;1.88;;;;;;;-0.07;95.96;99976.97;5080622;28;20396;-53
2022/12/25 06:24:34;;;;;;;2.78;1.35;;;;;;;-0.13;95.92;99960.69;5074524;28;20047;-54
2022/12/25 06:27:02;;;;;;;2.90;1.73;;;;;;;-0.06;95.61;99976.13;5054797;28;20541;-52
2022/12/25 06:29:28;;;;;;;4.75;1.90;;;;;;;-0.01;96.00;99983.84;5094880;28;20080;-52
2022/12/25 06:31:56;;;;;;;3.42;1.90;;;;;;;-0.01;95.48;99977.03;5110174;28;20063;-54
2022/12/25 06:34:22;;;;;;;3.47;1.58;;;;;;;0.02;95.31;99986.44;5109002;28;20044;-52
2022/12/25 06:36:48;;;;;;;3.83;1.58;;;;;;;-0.35;95.33;99923.78;5056727;28;20042;-52
2022/12/25 06:39:14;;;;;;;2.28;1.40;;;;;;;-0.17;95.16;99957.25;5077113;28;20043;-53
2022/12/25 06:41:58;;;;;;;2.30;1.48;;;;;;;-0.03;94.36;99996.59;5109720;28;20047;-54
2022/12/25 06:44:43;;;;;;;4.55;1.65;;;;;;;0.03;94.61;100002.63;5086750;28;20042;-53
2022/12/25 06:47:10;;;;;;;3.20;1.60;;;;;;;0.05;94.56;99991.59;5110045;28;20036;-57
2022/12/25 06:49:54;;;;;;;3.22;1.50;;;;;;;0.04;93.91;100000.09;5097551;28;20044;-56
2022/12/25 06:52:38;;;;;;;3.38;2.25;;;;;;;0.05;94.72;100003.50;5089483;28;20039;-51
2022/12/25 06:55:23;;;;;;;6.32;2.60;;;;;;;0.08;94.65;100001.84;5089367;28;20553;-53
2022/12/25 06:58:07;;;;;;;5.93;2.15;;;;;;;0.11;94.79;100011.22;5088155;28;20047;-54
2022/12/25 07:00:33;;;;;;;2.88;1.90;;;;;;;0.08;94.24;100019.75;5089412;28;20056;-52
2022/12/25 07:02:59;;;;;;;3.85;1.38;;;;;;;0.10;94.20;100017.22;5104664;28;20146;-53
2022/12/25 07:05:25;;;;;;;2.75;1.00;;;;;;;0.07;94.20;100014.59;5088676;28;20040;-55
2022/12/25 07:07:51;;;;;;;1.98;0.93;;;;;;;0.00;92.74;100011.13;5089363;28;20048;-54
2022/12/25 07:10:17;;;;;;;3.10;1.10;;;;;;;0.02;92.48;100014.53;5101760;28;20051;-52
2022/12/25 07:13:01;;;;;;;2.47;1.10;;;;;;;0.03;92.25;100011.16;5109513;28;20039;-53
2022/12/25 07:15:27;;;;;;;2.90;1.25;;;;;;;0.04;92.48;100015.44;5095071;28;20032;-51
2022/12/25 07:17:53;;;;;;;1.50;1.10;;;;;;;0.06;91.80;100018.84;5089635;28;20147;-55
2022/12/25 07:20:19;;;;;;;3.45;0.80;;;;;;;-0.17;91.10;99997.25;5101410;28;20123;-53
2022/12/25 07:22:45;;;;;;;2.15;1.10;;;;;;;-0.04;90.77;100022.97;5088633;28;20857;-55
2022/12/25 07:25:29;;;;;;;2.08;1.02;;;;;;;0.05;91.09;100037.59;5089213;28;20051;-55
2022/12/25 07:28:13;;;;;;;2.35;1.27;;;;;;;0.00;90.47;100032.41;5089089;28;20121;-53
2022/12/25 07:30:39;;;;;;;4.47;1.00;;;;;;;0.04;90.55;100045.25;5105375;28;20036;-58
2022/12/25 07:33:05;;;;;;;3.78;1.55;;;;;;;0.04;90.54;100042.69;5105470;28;20047;-54
2022/12/25 07:35:31;;;;;;;2.80;1.38;;;;;;;0.03;89.85;100054.59;5101873;28;20051;-55
2022/12/25 07:38:15;;;;;;;1.95;1.10;;;;;;;-0.01;89.46;100046.03;5109318;28;20046;-53
2022/12/25 07:40:44;;;;;;;2.53;1.60;;;;;;;0.07;89.58;100056.34;5091215;28;20044;-56
2022/12/25 07:43:11;;;;;;;3.42;1.35;;;;;;;0.05;89.05;100052.94;5082659;28;20068;-54
2022/12/25 07:45:37;;;;;;;2.30;1.20;;;;;;;0.09;88.78;100058.94;5084632;28;20097;-54
2022/12/25 07:48:03;;;;;;;3.15;1.20;;;;;;;0.11;89.03;100067.47;5096271;28;20044;-53
2022/12/25 07:50:47;;;;;;;1.48;1.20;;;;;;;0.10;88.05;100060.66;5103193;28;20044;-52
2022/12/25 07:53:13;;;;;;;4.07;1.02;;;;;;;-0.10;88.19;100029.69;5109249;28;20395;-52
2022/12/25 07:55:57;;;;;;;2.55;1.40;;;;;;;0.11;88.09;100070.03;5097656;28;20096;-53
2022/12/25 07:58:41;;;;;;;2.58;1.23;;;;;;;0.11;87.68;100070.03;5094758;28;20051;-55
2022/12/25 08:01:13;;;;;;;1.92;1.20;;;;;;;-0.26;87.56;100015.03;5105147;28;20055;-55
2022/12/25 08:03:42;;;;;;;3.40;1.08;;;;;;;0.09;87.13;100074.28;5091290;28;20156;-54
2022/12/25 08:06:10;;;;;;;3.67;1.40;;;;;;;0.08;86.88;100083.63;5097811;28;20530;-52
2022/12/25 08:08:37;;;;;;;3.55;1.38;;;;;;;0.10;86.77;100089.66;5112892;28;20135;-54
2022/12/25 08:11:22;;;;;;;3.20;2.03;;;;;;;0.05;86.00;100077.63;5111586;28;20040;-52
2022/12/25 08:14:07;;;;;;;2.88;1.80;;;;;;;0.15;86.55;100095.69;5112628;28;20043;-57
2022/12/25 08:17:10;;;;;;;4.30;2.00;;;;;;;0.16;85.81;100099.94;5093887;28;20089;-55
2022/12/25 08:19:36;;;;;;;5.38;1.80;;;;;;;0.16;86.04;100104.22;5091114;28;20036;-49
2022/12/25 08:22:02;;;;;;;4.63;2.08;;;;;;;0.19;85.88;100115.31;5090994;28;20396;-50
2022/12/25 08:24:47;;;;;;;3.53;1.80;;;;;;;-0.01;85.47;100069.03;5091100;28;20507;-54
2022/12/25 08:27:31;;;;;;;3.20;1.30;;;;;;;0.25;85.26;100112.88;5112315;28;20036;-54
2022/12/25 08:29:57;;;;;;;3.58;1.55;;;;;;;0.27;84.81;100110.31;5098447;28;20130;-56
2022/12/25 08:32:41;;;;;;;5.82;1.67;;;;;;;0.28;84.83;100115.44;5071017;28;20127;-52
2022/12/25 08:35:07;;;;;;;1.55;1.45;;;;;;;0.28;84.37;100112.91;5091338;28;20044;-51
2022/12/25 08:37:33;;;;;;;3.10;1.45;;;;;;;0.26;84.04;100117.13;5091836;28;20734;-53
2022/12/25 08:39:59;;;;;;;3.50;1.30;;;;;;;0.25;83.30;100119.66;5090502;28;20042;-53
2022/12/25 08:42:44;;;;;;;2.30;1.30;;;;;;;0.23;82.56;100124.75;5090654;28;20036;-50
2022/12/25 08:45:10;;;;;;;7.07;1.40;;;;;;;-0.07;82.31;100076.63;5106580;28;20036;-55
2022/12/25 08:47:36;;;;;;;3.45;1.40;;;;;;;0.18;82.04;100112.75;5102910;28;20043;-53
2022/12/25 08:50:02;;;;;;;1.63;1.00;;;;;;;0.21;81.59;100125.59;5091805;28;20423;-54
2022/12/25 08:52:47;;;;;;;2.63;1.42;;;;;;;0.25;81.46;100132.44;5091886;28;20051;-50
2022/12/25 08:55:13;;;;;;;1.63;1.02;;;;;;;0.26;80.69;100129.06;5107441;28;20126;-55
2022/12/25 08:58:16;;;;;;;2.53;1.42;;;;;;;0.31;80.39;100137.66;5092364;27;20044;-55
2022/12/25 09:01:03;;;;;;;3.10;1.30;;;;;;;-0.09;80.34;100062.09;5093030;28;20090;-55
2022/12/25 09:03:32;;;;;;;5.78;1.95;;;;;;;0.36;79.93;100136.03;5091933;28;20113;-52
2022/12/25 09:06:06;;;;;;;4.22;1.67;;;;;;;0.15;79.26;100099.94;5090648;28;20046;-54
2022/12/25 09:08:33;;;;;;;4.47;1.75;;;;;;;0.24;78.92;100123.06;5102432;28;20082;-50
2022/12/25 09:11:22;;;;;;;4.05;1.30;;;;;;;0.13;78.57;100106.72;5108580;28;20036;-50
2022/12/25 09:13:49;;;;;;;3.85;1.50;;;;;;;0.33;78.07;100139.38;5089575;28;20043;-52
2022/12/25 09:16:18;;;;;;;1.48;1.27;;;;;;;0.28;77.97;100138.47;5097216;28;20035;-52
2022/12/25 09:18:43;;;;;;;3.17;1.58;;;;;;;0.25;77.11;100138.44;5090941;28;20190;-52
2022/12/25 09:21:29;;;;;;;4.45;1.40;;;;;;;0.19;76.76;100148.56;5106958;28;20051;-51
2022/12/25 09:23:55;;;;;;;2.53;1.60;;;;;;;0.16;76.06;100143.38;5089892;28;20039;-52
2022/12/25 09:26:39;;;;;;;2.88;1.60;;;;;;;0.02;76.05;100124.44;5097655;28;20051;-54
2022/12/25 09:29:05;;;;;;;3.40;1.70;;;;;;;0.20;75.63;100164.78;5090898;28;20055;-53
2022/12/25 09:31:31;;;;;;;3.05;1.40;;;;;;;0.07;75.44;100134.72;5077791;28;20435;-52
2022/12/25 09:33:57;;;;;;;2.08;1.50;;;;;;;0.23;75.24;100165.66;5068604;28;20102;-56
2022/12/25 09:36:23;;;;;;;2.92;1.60;;;;;;;0.26;74.77;100169.97;5092048;28;20036;-54
2022/12/25 09:39:08;;;;;;;1.67;1.17;;;;;;;0.24;74.34;100174.19;5090522;28;20093;-51
2022/12/25 09:41:57;;;;;;;1.77;1.08;;;;;;;0.20;74.18;100169.88;5090812;28;20048;-56
2022/12/25 09:44:44;;;;;;;1.70;1.25;;;;;;;0.19;73.27;100173.28;5088010;28;20043;-55
2022/12/25 09:47:13;;;;;;;2.15;1.45;;;;;;;0.17;72.83;100168.13;5110005;28;20035;-53
2022/12/25 09:49:53;;;;;;;2.40;1.58;;;;;;;0.02;72.56;100144.88;5065564;28;20205;-51
2022/12/25 09:52:21;;;;;;;2.65;1.50;;;;;;;0.20;72.55;100168.19;5090775;28;20146;-48
2022/12/25 09:55:32;;;;;;;3.47;1.30;;;;;;;0.18;72.26;100180.06;5092601;28;20040;-51
2022/12/25 09:58:00;;;;;;;3.28;2.00;;;;;;;0.16;71.57;100180.91;5048552;28;20044;-57
2022/12/25 10:00:34;;;;;;;4.22;2.17;;;;;;;0.16;71.67;100181.72;5082947;28;20771;-51
2022/12/25 10:03:25;;;;;;;2.28;1.60;;;;;;;0.14;71.03;100178.31;5088883;28;20067;-54
2022/12/25 10:06:03;;;;;;;2.33;1.30;;;;;;;0.16;70.47;100188.56;5101095;28;20042;-53
2022/12/25 10:08:33;;;;;;;2.53;1.30;;;;;;;0.11;70.58;100193.59;5110843;28;20035;-54
2022/12/25 10:11:19;;;;;;;1.50;0.95;;;;;;;0.08;70.14;100193.56;5109196;28;20069;-54
2022/12/25 10:14:11;;;;;;;2.97;1.40;;;;;;;0.10;69.98;100198.69;5110628;28;20039;-52
2022/12/25 10:17:16;;;;;;;3.45;1.40;;;;;;;-0.20;69.63;100142.81;5094450;28;20063;-54
2022/12/25 10:20:26;;;;;;;3.13;1.40;;;;;;;0.14;69.57;100203.00;5076322;28;20529;-62
2022/12/25 10:23:00;;;;;;;2.63;1.60;;;;;;;0.16;69.83;100209.84;5082142;28;20485;-58
2022/12/25 10:25:26;;;;;;;4.30;1.52;;;;;;;0.12;69.29;100209.78;5070378;28;20470;-56
2022/12/25 10:28:13;;;;;;;4.00;1.75;;;;;;;0.10;68.82;100203.81;5089259;28;20040;-57
2022/12/25 10:30:42;;;;;;;2.33;1.60;;;;;;;0.12;68.91;100197.88;5076829;28;20043;-53
2022/12/25 10:33:08;;;;;;;2.55;1.60;;;;;;;0.14;68.82;100200.47;5068919;28;20050;-58
2022/12/25 10:35:55;;;;;;;3.78;1.60;;;;;;;-0.13;68.55;100150.63;5089799;28;20085;-55
2022/12/25 10:38:39;;;;;;;2.47;1.40;;;;;;;0.16;68.54;100203.91;5095927;28;20042;-57
2022/12/25 10:41:56;;;;;;;2.95;1.45;;;;;;;0.22;68.14;100211.66;5100420;28;20040;-57
2022/12/25 10:44:25;;;;;;;2.08;1.33;;;;;;;0.27;68.05;100202.34;5061912;28;20043;-53
2022/12/25 10:46:58;;;;;;;1.77;1.40;;;;;;;0.28;67.84;100199.84;5096012;28;20058;-52
2022/12/25 10:49:28;;;;;;;5.30;1.90;;;;;;;0.11;68.12;100177.38;5101081;28;20088;-46
2022/12/25 10:51:54;;;;;;;5.47;2.33;;;;;;;0.25;67.90;100220.25;5090466;28;20557;-58
2022/12/25 10:54:40;;;;;;;2.35;1.55;;;;;;;0.21;67.95;100218.47;5099591;28;20108;-55
2022/12/25 10:57:09;;;;;;;2.63;1.48;;;;;;;0.19;68.00;100214.19;5100135;28;20084;-56
2022/12/25 10:59:45;;;;;;;3.35;1.90;;;;;;;0.21;67.90;100218.47;5086177;28;20051;-57
2022/12/25 11:02:17;;;;;;;8.20;2.17;;;;;;;0.26;68.10;100216.00;5085985;28;20048;-55
2022/12/25 11:04:43;;;;;;;2.90;1.75;;;;;;;0.30;68.04;100213.50;5072771;28;20059;-60
2022/12/25 11:07:21;;;;;;;4.15;2.00;;;;;;;0.32;67.63;100210.97;5091368;28;20425;-54
2022/12/25 11:10:16;;;;;;;5.05;1.73;;;;;;;0.29;67.82;100221.16;5082686;28;20078;-52
2022/12/25 11:12:44;;;;;;;2.42;1.30;;;;;;;0.27;67.49;100222.81;5096114;28;20040;-51
2022/12/25 11:15:38;;;;;;;2.90;1.40;;;;;;;0.23;66.99;100224.47;5064045;28;20055;-52
2022/12/25 11:18:18;;;;;;;3.03;1.48;;;;;;;0.24;66.73;100227.88;5086708;28;20126;-50
2022/12/25 11:20:54;;;;;;;1.98;1.02;;;;;;;0.28;66.78;100229.66;5083137;28;20032;-51
2022/12/25 11:23:22;;;;;;;1.52;1.02;;;;;;;0.32;66.77;100229.72;5082470;28;20112;-54
2022/12/25 11:26:05;;;;;;;4.70;1.73;;;;;;;0.36;66.88;100238.31;5083153;28;20064;-54
2022/12/25 11:29:08;;;;;;;3.15;1.30;;;;;;;0.38;66.13;100236.63;5048521;28;20578;-52
2022/12/25 11:31:39;;;;;;;3.63;1.50;;;;;;;0.39;66.04;100246.03;5091207;28;20039;-54
2022/12/25 11:34:27;;;;;;;6.07;1.85;;;;;;;0.43;66.36;100243.53;5096157;27;20393;-57
2022/12/25 11:37:12;;;;;;;4.07;1.90;;;;;;;0.45;66.30;100243.56;5090040;28;20050;-55
2022/12/25 11:39:56;;;;;;;2.80;1.65;;;;;;;0.40;66.10;100240.94;5081820;28;20050;-53
2022/12/25 11:42:31;;;;;;;3.55;1.42;;;;;;;0.43;66.00;100253.75;5086466;28;20075;-54
2022/12/25 11:45:17;;;;;;;3.03;1.50;;;;;;;0.43;65.61;100256.31;5066417;28;20094;-55
2022/12/25 11:47:53;;;;;;;3.83;1.33;;;;;;;0.45;65.44;100250.38;5085656;28;20032;-54
2022/12/25 11:50:32;;;;;;;1.83;1.50;;;;;;;0.45;65.59;100248.69;5085902;28;20900;-54
2022/12/25 11:53:02;;;;;;;2.85;1.20;;;;;;;0.46;65.63;100255.53;5085321;28;20047;-54
2022/12/25 11:55:36;;;;;;;4.30;1.40;;;;;;;0.45;65.31;100256.34;5086033;28;20754;-53
2022/12/25 11:58:15;;;;;;;3.35;1.50;;;;;;;0.45;65.47;100263.16;5087990;28;20039;-56
2022/12/25 12:01:01;;;;;;;1.58;1.10;;;;;;;0.45;65.03;100258.91;5085704;28;20052;-57
2022/12/25 12:03:29;;;;;;;2.85;1.50;;;;;;;0.41;65.25;100263.13;5086104;28;20047;-53
2022/12/25 12:06:22;;;;;;;1.80;1.40;;;;;;;0.37;64.82;100263.03;5067199;28;20049;-54
2022/12/25 12:09:08;;;;;;;2.40;1.35;;;;;;;0.22;64.93;100237.22;5065576;28;20825;-53
2022/12/25 12:11:48;;;;;;;2.13;1.60;;;;;;;0.35;64.81;100263.03;5068260;28;20466;-52
2022/12/25 12:14:24;;;;;;;2.22;1.50;;;;;;;0.35;65.01;100265.59;5085622;28;20058;-56
2022/12/25 12:16:50;;;;;;;3.83;1.60;;;;;;;0.36;64.77;100271.56;5086332;28;20572;-53
2022/12/25 12:19:35;;;;;;;2.22;1.35;;;;;;;0.36;64.56;100276.69;5086966;28;20146;-51
2022/12/25 12:22:02;;;;;;;3.20;1.60;;;;;;;0.39;64.65;100275.03;5086086;28;20075;-56
2022/12/25 12:24:50;;;;;;;3.15;1.95;;;;;;;0.39;64.82;100281.84;5097498;28;20107;-50
2022/12/25 12:27:38;;;;;;;4.50;1.58;;;;;;;0.38;65.08;100290.34;5085896;28;20182;-54
2022/12/25 12:30:06;;;;;;;4.20;1.77;;;;;;;0.37;64.73;100292.03;5095156;28;20044;-55
2022/12/25 12:32:53;;;;;;;3.33;1.50;;;;;;;0.37;64.76;100296.28;5104971;28;20422;-48
2022/12/25 12:35:23;;;;;;;2.95;1.75;;;;;;;0.38;64.87;100296.31;5088155;28;20047;-52
2022/12/25 12:38:09;;;;;;;;;;;;;;;0.36;64.62;100289.47;5077562;28;20101;-57
2022/12/25 12:40:55;;;;;;;2.85;1.40;;;;;;;0.30;64.78;100289.38;5084289;28;19970;-52
2022/12/25 12:43:52;;;;;;;3.75;1.50;;;;;;;0.28;64.15;100286.78;5083987;28;20044;-51
2022/12/25 12:46:38;;;;;;;2.63;1.65;;;;;;;0.26;64.57;100290.16;5090542;28;20155;-49
2022/12/25 12:49:10;;;;;;;2.70;1.80;;;;;;;0.22;64.54;100285.81;5086359;28;20044;-54
2022/12/25 12:52:05;;;;;;;3.10;1.80;;;;;;;0.18;64.63;100286.59;5080834;28;20059;-54
2022/12/25 12:54:31;;;;;;;3.30;1.48;;;;;;;0.12;64.76;100289.91;5089458;28;20043;-52
2022/12/25 12:57:16;;;;;;;2.63;1.63;;;;;;;0.12;64.58;100292.47;5105088;27;20047;-52
2022/12/25 12:59:45;;;;;;;4.25;1.55;;;;;;;0.07;64.54;100296.63;5087475;28;20052;-51
2022/12/25 13:02:30;;;;;;;3.38;1.90;;;;;;;-0.08;64.67;100289.56;5084370;28;20503;-50
2022/12/25 13:05:04;;;;;;;4.18;2.10;;;;;;;-0.08;64.62;100306.59;5106497;27;20048;-53
2022/12/25 13:07:48;;;;;;;4.15;1.60;;;;;;;-0.21;64.89;100320.81;5081571;28;20076;-57
2022/12/25 13:10:33;;;;;;;3.35;1.60;;;;;;;-0.38;64.43;100321.34;5087285;28;20047;-53
2022/12/25 13:13:27;;;;;;;3.90;1.67;;;;;;;-0.56;64.86;100325.25;5063599;28;20051;-55
2022/12/25 13:16:11;;;;;;;2.03;1.45;;;;;;;-0.69;64.94;100322.41;5073941;28;20096;-55
2022/12/25 13:18:38;;;;;;;2.70;1.80;;;;;;;-0.94;65.08;100303.13;5088292;28;20055;-59
2022/12/25 13:21:24;;;;;;;3.08;1.77;;;;;;;-0.94;65.11;100331.22;5092315;28;20047;-52
2022/12/25 13:24:22;;;;;;;2.90;1.92;;;;;;;-1.08;65.15;100330.91;5094070;28;20045;-55
2022/12/25 13:27:23;;;;;;;3.53;1.50;;;;;;;-1.21;65.73;100328.06;5084627;28;20074;-53
2022/12/25 13:29:48;;;;;;;5.90;1.90;;;;;;;-1.31;65.96;100335.47;5080584;28;20279;-52
2022/12/25 13:32:25;;;;;;;3.15;2.05;;;;;;;-1.36;66.32;100334.50;5096907;28;20074;-50
2022/12/25 13:34:52;;;;;;;4.93;1.70;;;;;;;-1.41;66.40;100346.28;5077125;28;20526;-52
2022/12/25 13:37:21;;;;;;;2.38;1.65;;;;;;;-1.67;66.84;100316.75;5071815;28;20039;-50
2022/12/25 13:40:00;;;;;;;5.57;2.17;;;;;;;-1.53;67.02;100345.16;5088959;28;20817;-55
2022/12/25 13:42:27;;;;;;;;;;;;;;;-1.55;67.23;100352.75;5086247;28;20039;-55
2022/12/25 13:45:32;;;;;;;5.15;2.20;;;;;;;-1.58;66.97;100349.28;5100533;28;20331;-56
2022/12/25 13:48:18;;;;;;;3.25;2.00;;;;;;;-1.60;67.35;100358.56;5080843;28;20512;-55
2022/12/25 13:50:47;;;;;;;3.70;2.10;;;;;;;-1.85;67.37;100329.91;5093332;28;20523;-52
2022/12/25 13:53:16;;;;;;;2.60;1.90;;;;;;;-1.67;67.27;100365.19;5072732;28;20039;-49
2022/12/25 13:56:00;;;;;;;6.38;2.17;;;;;;;-1.72;67.45;100366.75;5076325;28;20135;-52
2022/12/25 13:58:29;;;;;;;3.38;1.80;;;;;;;-1.79;67.49;100368.28;5092110;27;20118;-52
2022/12/25 14:00:57;;;;;;;4.65;1.83;;;;;;;-1.81;67.73;100363.97;5093362;28;20059;-57
2022/12/25 14:03:36;;;;;;;3.30;1.73;;;;;;;-1.82;68.03;100359.69;5080663;28;20039;-54